createdAt,value
2019-03-03T00:01:32.617Z,5.42
2019-03-03T00:04:05.007Z,5.43
2019-03-03T00:06:45.095Z,5.45
2019-03-03T00:09:19.016Z,5.49
2019-03-03T00:11:52.145Z,5.51
2019-03-03T00:14:29.769Z,5.52
2019-03-03T00:17:09.862Z,5.54
2019-03-03T00:19:45.906Z,5.54
2019-03-03T00:22:18.636Z,5.55
2019-03-03T00:24:53.623Z,5.54
2019-03-03T00:27:27.172Z,5.52
2019-03-03T00:30:02.876Z,5.48
2019-03-03T00:32:37.546Z,5.43
2019-03-03T00:35:11.966Z,5.37
2019-03-03T00:38:05.277Z,5.33
2019-03-03T00:41:08.121Z,5.26
2019-03-03T00:44:02.222Z,5.23
2019-03-03T00:46:55.114Z,5.19
2019-03-03T00:50:16.929Z,5.14
2019-03-03T00:52:57.977Z,5.09
2019-03-03T00:56:04.417Z,5.05
2019-03-03T00:58:54.889Z,5.03
2019-03-03T01:02:13.512Z,5.01
2019-03-03T01:05:08.705Z,4.99
2019-03-03T01:08:09.380Z,4.99
2019-03-03T01:11:09.189Z,4.99
2019-03-03T01:13:55.695Z,4.97
2019-03-03T01:16:47.955Z,4.97
2019-03-03T01:19:52.567Z,4.98
2019-03-03T01:22:35.385Z,5.01
2019-03-03T01:25:13.808Z,5.05
2019-03-03T01:27:52.749Z,5.08
2019-03-03T01:30:26.953Z,5.10
2019-03-03T01:33:04.894Z,5.13
2019-03-03T01:35:47.655Z,5.23
2019-03-03T01:38:27.561Z,5.29
2019-03-03T01:41:11.790Z,5.36
2019-03-03T01:43:54.437Z,5.41
2019-03-03T01:46:28.895Z,5.47
2019-03-03T01:49:01.830Z,5.57
2019-03-03T01:51:37.361Z,5.69
2019-03-03T01:54:09.163Z,5.74
2019-03-03T01:56:41.530Z,5.81
2019-03-03T01:59:15.706Z,5.82
2019-03-03T02:01:48.748Z,5.80
2019-03-03T02:04:22.384Z,5.89
2019-03-03T02:06:55.131Z,5.95
2019-03-03T02:09:29.233Z,6.10
2019-03-03T02:12:03.847Z,6.09
2019-03-03T02:14:38.986Z,6.09
2019-03-03T02:17:13.349Z,6.12
2019-03-03T02:19:45.741Z,6.15
2019-03-03T02:22:21.296Z,6.32
2019-03-03T02:24:54.834Z,6.36
2019-03-03T02:27:30.459Z,6.34
2019-03-03T02:30:03.750Z,6.33
2019-03-03T02:32:36.751Z,6.27
2019-03-03T02:35:11.117Z,6.27
2019-03-03T02:37:42.715Z,6.23
2019-03-03T02:40:15.889Z,6.22
2019-03-03T02:42:48.800Z,6.21
2019-03-03T02:45:21.795Z,6.19
2019-03-03T02:47:54.780Z,6.17
2019-03-03T02:50:30.976Z,6.17
2019-03-03T02:53:05.785Z,6.15
2019-03-03T02:55:39.597Z,6.13
2019-03-03T02:58:13.456Z,6.14
2019-03-03T03:00:52.738Z,6.14
2019-03-03T03:03:24.958Z,6.17
2019-03-03T03:06:24.433Z,6.20
2019-03-03T03:09:12.040Z,6.25
2019-03-03T03:11:56.028Z,6.25
2019-03-03T03:14:55.069Z,6.22
2019-03-03T03:17:48.056Z,6.24
2019-03-03T03:20:40.842Z,6.23
2019-03-03T03:23:29.456Z,6.25
2019-03-03T03:26:23.573Z,6.28
2019-03-03T03:29:14.055Z,6.30
2019-03-03T03:32:10.802Z,6.33
2019-03-03T03:34:58.627Z,6.34
2019-03-03T03:38:04.109Z,6.31
2019-03-03T03:41:07.760Z,6.38
2019-03-03T03:44:14.039Z,6.40
2019-03-03T03:47:18.165Z,6.41
2019-03-03T03:50:14.529Z,6.45
2019-03-03T03:52:54.404Z,6.56
2019-03-03T03:55:46.102Z,6.52
2019-03-03T03:58:32.398Z,6.51
2019-03-03T04:01:26.334Z,6.53
2019-03-03T04:04:15.152Z,6.53
2019-03-03T04:07:06.886Z,6.56
2019-03-03T04:09:50.848Z,6.58
2019-03-03T04:12:49.648Z,6.62
2019-03-03T04:15:44.243Z,6.69
2019-03-03T04:18:43.338Z,6.78
2019-03-03T04:21:34.520Z,6.75
2019-03-03T04:24:26.369Z,6.75
2019-03-03T04:27:17.576Z,6.83
2019-03-03T04:30:12.927Z,6.76
2019-03-03T04:33:07.927Z,6.72
2019-03-03T04:36:03.319Z,6.73
2019-03-03T04:39:02.994Z,6.75
2019-03-03T04:41:57.689Z,6.68
2019-03-03T04:44:50.398Z,6.62
2019-03-03T04:47:41.352Z,6.58
2019-03-03T04:50:38.560Z,6.66
2019-03-03T04:53:43.968Z,6.61
2019-03-03T04:56:40.247Z,6.60
2019-03-03T04:59:26.792Z,6.59
2019-03-03T05:02:41.714Z,6.57
2019-03-03T05:05:32.263Z,6.55
2019-03-03T05:08:17.525Z,6.52
2019-03-03T05:11:15.966Z,6.52
2019-03-03T05:14:20.940Z,6.50
2019-03-03T05:17:02.216Z,6.52
2019-03-03T05:19:47.837Z,6.55
2019-03-03T05:22:36.506Z,6.55
2019-03-03T05:25:23.081Z,6.56
2019-03-03T05:28:03.062Z,6.59
2019-03-03T05:30:46.858Z,6.61
2019-03-03T05:33:25.521Z,6.63
2019-03-03T05:36:06.267Z,6.66
2019-03-03T05:38:48.284Z,6.67
2019-03-03T05:41:27.594Z,5.98
2019-03-03T05:44:08.015Z,6.71
2019-03-03T05:46:40.302Z,6.74
2019-03-03T05:49:21.276Z,6.74
2019-03-03T05:52:00.047Z,6.76
2019-03-03T05:54:41.193Z,6.76
2019-03-03T05:57:14.816Z,6.79
2019-03-03T05:59:49.238Z,6.98
2019-03-03T06:02:26.867Z,6.97
2019-03-03T06:05:06.448Z,6.92
2019-03-03T06:07:43.605Z,7.00
2019-03-03T06:10:23.740Z,6.96
2019-03-03T06:13:01.134Z,7.11
2019-03-03T06:15:42.220Z,7.06
2019-03-03T06:18:14.725Z,7.25
2019-03-03T06:20:46.894Z,7.23
2019-03-03T06:23:21.463Z,7.18
2019-03-03T06:25:57.227Z,7.16
2019-03-03T06:28:36.690Z,7.19
2019-03-03T06:31:17.132Z,7.28
2019-03-03T06:33:52.833Z,7.29
2019-03-03T06:36:35.824Z,7.28
2019-03-03T06:39:08.236Z,7.31
2019-03-03T06:41:42.758Z,7.41
2019-03-03T06:44:14.711Z,7.43
2019-03-03T06:46:50.744Z,7.41
2019-03-03T06:52:23.236Z,7.45
2019-03-03T06:54:56.071Z,7.49
2019-03-03T06:57:33.774Z,7.50
2019-03-03T07:00:11.016Z,7.52
2019-03-03T07:02:43.412Z,7.55
2019-03-03T07:05:18.544Z,7.58
2019-03-03T07:07:54.324Z,7.58
2019-03-03T07:10:27.773Z,7.61
2019-03-03T07:13:03.556Z,7.68
2019-03-03T07:15:36.703Z,7.72
2019-03-03T07:18:09.792Z,7.75
2019-03-03T07:20:43.905Z,7.74
2019-03-03T07:23:16.050Z,7.74
2019-03-03T07:25:49.303Z,7.74
2019-03-03T07:28:25.309Z,7.76
2019-03-03T07:31:04.005Z,7.77
2019-03-03T07:33:45.944Z,7.94
2019-03-03T07:36:27.781Z,7.90
2019-03-03T07:39:03.440Z,7.93
2019-03-03T07:41:40.466Z,7.94
2019-03-03T07:44:36.062Z,7.99
2019-03-03T07:47:18.060Z,8.03
2019-03-03T07:50:05.801Z,8.13
2019-03-03T07:52:44.861Z,8.20
2019-03-03T07:55:18.219Z,8.31
2019-03-03T07:58:03.356Z,8.35
2019-03-03T08:00:37.931Z,8.53
2019-03-03T08:03:10.714Z,8.53
2019-03-03T08:05:49.978Z,8.64
2019-03-03T08:08:28.203Z,8.75
2019-03-03T08:11:17.012Z,8.84
2019-03-03T08:13:52.302Z,8.90
2019-03-03T08:16:27.043Z,8.96
2019-03-03T08:18:59.548Z,9.03
2019-03-03T08:21:42.040Z,9.03
2019-03-03T08:24:19.891Z,9.13
2019-03-03T08:26:54.187Z,9.30
2019-03-03T08:29:33.463Z,9.27
2019-03-03T08:32:09.796Z,9.26
2019-03-03T08:34:42.031Z,9.21
2019-03-03T08:37:18.044Z,9.13
2019-03-03T08:39:52.673Z,9.15
2019-03-03T08:42:35.801Z,9.14
2019-03-03T08:45:34.427Z,9.16
2019-03-03T08:48:32.894Z,9.26
2019-03-03T08:51:22.127Z,9.45
2019-03-03T08:54:19.366Z,9.63
2019-03-03T08:57:30.880Z,9.89
2019-03-03T09:00:19.229Z,10.18
2019-03-03T09:03:17.036Z,10.18
2019-03-03T09:06:15.585Z,10.45
2019-03-03T09:09:07.639Z,10.48
2019-03-03T09:12:10.364Z,10.71
2019-03-03T09:15:12.892Z,10.87
2019-03-03T09:18:10.195Z,11.05
2019-03-03T09:21:00.958Z,11.47
2019-03-03T09:23:51.805Z,11.69
2019-03-03T09:26:56.631Z,11.71
2019-03-03T09:29:40.502Z,11.87
2019-03-03T09:32:33.058Z,11.96
2019-03-03T09:35:30.911Z,12.12
2019-03-03T09:38:31.048Z,12.20
2019-03-03T09:41:18.191Z,12.35
2019-03-03T09:44:11.655Z,12.48
2019-03-03T09:47:02.230Z,12.63
2019-03-03T09:50:10.604Z,12.69
2019-03-03T09:53:01.000Z,12.61
2019-03-03T09:55:48.614Z,12.77
2019-03-03T09:58:45.923Z,13.00
2019-03-03T10:01:48.842Z,13.22
2019-03-03T10:04:39.311Z,13.58
2019-03-03T10:07:45.044Z,13.98
2019-03-03T10:10:40.255Z,14.35
2019-03-03T10:13:49.437Z,14.54
2019-03-03T10:16:56.359Z,14.54
2019-03-03T10:19:54.594Z,14.54
2019-03-03T10:22:59.967Z,14.68
2019-03-03T10:25:48.604Z,14.87
2019-03-03T10:28:52.918Z,14.69
2019-03-03T10:31:42.688Z,14.49
2019-03-03T10:34:38.829Z,14.13
2019-03-03T10:37:34.293Z,13.97
2019-03-03T10:40:27.011Z,13.86
2019-03-03T10:43:13.238Z,13.80
2019-03-03T10:46:05.738Z,13.73
2019-03-03T10:49:21.698Z,13.65
2019-03-03T10:52:25.789Z,13.64
2019-03-03T10:55:08.571Z,13.77
2019-03-03T10:58:04.151Z,14.02
2019-03-03T11:01:02.309Z,14.11
2019-03-03T11:03:51.067Z,14.32
2019-03-03T11:06:46.776Z,14.33
2019-03-03T11:09:41.699Z,14.46
2019-03-03T11:12:34.947Z,14.44
2019-03-03T11:15:33.880Z,14.40
2019-03-03T11:18:26.671Z,14.48
2019-03-03T11:21:22.423Z,14.44
2019-03-03T11:24:32.964Z,14.54
2019-03-03T11:27:42.318Z,14.45
2019-03-03T11:30:40.139Z,14.29
2019-03-03T11:33:36.386Z,14.31
2019-03-03T11:36:27.545Z,14.19
2019-03-03T11:39:21.394Z,14.24
2019-03-03T11:42:15.179Z,14.25
2019-03-03T11:45:15.106Z,14.17
2019-03-03T11:48:16.423Z,14.33
2019-03-03T11:51:12.482Z,14.74
2019-03-03T11:54:09.957Z,15.03
2019-03-03T11:56:53.225Z,15.14
2019-03-03T12:00:05.340Z,15.12
2019-03-03T12:02:53.899Z,15.09
2019-03-03T12:05:43.357Z,15.14
2019-03-03T12:08:41.639Z,15.11
2019-03-03T12:11:27.526Z,15.12
2019-03-03T12:14:34.332Z,15.33
2019-03-03T12:17:34.150Z,15.41
2019-03-03T12:20:21.788Z,15.27
2019-03-03T12:23:17.221Z,15.45
2019-03-03T12:25:57.918Z,15.54
2019-03-03T12:28:49.663Z,15.47
2019-03-03T12:31:52.356Z,15.64
2019-03-03T12:34:42.218Z,15.74
2019-03-03T12:37:40.232Z,15.76
2019-03-03T12:40:31.394Z,15.57
2019-03-03T12:43:14.124Z,15.45
2019-03-03T12:46:25.479Z,15.65
2019-03-03T12:49:24.876Z,15.82
2019-03-03T12:52:35.807Z,15.89
2019-03-03T12:55:21.552Z,16.10
2019-03-03T12:58:26.047Z,16.00
2019-03-03T13:01:16.317Z,15.88
2019-03-03T13:04:10.537Z,15.87
2019-03-03T13:07:02.427Z,16.11
2019-03-03T13:09:52.082Z,16.21
2019-03-03T13:12:35.945Z,16.31
2019-03-03T13:15:19.877Z,16.36
2019-03-03T13:18:15.561Z,16.29
2019-03-03T13:21:10.896Z,16.22
2019-03-03T13:23:53.604Z,16.05
2019-03-03T13:26:47.885Z,16.06
2019-03-03T13:29:45.492Z,16.11
2019-03-03T13:32:36.393Z,16.08
2019-03-03T13:35:19.321Z,15.94
2019-03-03T13:37:59.405Z,15.91
2019-03-03T13:40:48.656Z,15.73
2019-03-03T13:43:20.677Z,15.74
2019-03-03T13:45:54.121Z,15.75
2019-03-03T13:48:27.715Z,15.74
2019-03-03T13:51:03.248Z,15.87
2019-03-03T13:53:34.964Z,15.91
2019-03-03T13:56:08.819Z,15.82
2019-03-03T13:58:44.066Z,15.84
2019-03-03T14:01:16.019Z,15.91
2019-03-03T14:03:49.788Z,15.90
2019-03-03T14:06:23.102Z,15.92
2019-03-03T14:08:58.364Z,15.79
2019-03-03T14:11:30.838Z,15.77
2019-03-03T14:14:03.934Z,15.71
2019-03-03T14:16:36.704Z,15.70
2019-03-03T14:19:09.133Z,15.62
2019-03-03T14:21:40.679Z,15.65
2019-03-03T14:24:12.329Z,15.61
2019-03-03T14:26:51.745Z,15.64
2019-03-03T14:29:24.853Z,15.58
2019-03-03T14:31:58.971Z,15.52
2019-03-03T14:34:33.030Z,15.49
2019-03-03T14:37:04.355Z,15.52
2019-03-03T14:39:39.393Z,15.47
2019-03-03T14:42:12.975Z,15.44
2019-03-03T14:44:46.979Z,15.49
2019-03-03T14:47:19.966Z,15.54
2019-03-03T14:49:51.909Z,15.51
2019-03-03T14:52:25.135Z,15.49
2019-03-03T14:54:59.450Z,15.50
2019-03-03T14:57:32.129Z,15.47
2019-03-03T15:00:05.836Z,15.48
2019-03-03T15:02:39.778Z,15.50
2019-03-03T15:05:13.293Z,15.39
2019-03-03T15:07:47.051Z,15.54
2019-03-03T15:10:20.049Z,15.46
2019-03-03T15:12:55.421Z,15.41
2019-03-03T15:15:27.555Z,15.47
2019-03-03T15:18:00.096Z,15.29
2019-03-03T15:20:34.464Z,15.16
2019-03-03T15:23:08.293Z,15.10
2019-03-03T15:25:39.654Z,15.04
2019-03-03T15:28:12.365Z,14.94
2019-03-03T15:30:45.238Z,14.88
2019-03-03T15:33:19.376Z,14.88
2019-03-03T15:35:53.308Z,14.85
2019-03-03T15:38:28.570Z,14.80
2019-03-03T15:41:01.818Z,14.76
2019-03-03T15:43:33.334Z,14.71
2019-03-03T15:46:07.756Z,14.65
2019-03-03T15:48:46.210Z,14.55
2019-03-03T15:51:17.725Z,14.44
2019-03-03T15:53:51.468Z,14.42
2019-03-03T15:56:24.167Z,14.31
2019-03-03T15:58:56.004Z,14.21
2019-03-03T16:01:28.492Z,14.14
2019-03-03T16:04:02.420Z,14.09
2019-03-03T16:06:36.287Z,13.98
2019-03-03T16:09:16.042Z,13.87
2019-03-03T16:11:50.374Z,13.80
2019-03-03T16:14:24.975Z,13.66
2019-03-03T16:16:56.642Z,13.54
2019-03-03T16:19:29.378Z,13.40
2019-03-03T16:22:03.347Z,13.32
2019-03-03T16:24:39.147Z,13.20
2019-03-03T16:27:11.244Z,13.09
2019-03-03T16:29:44.327Z,12.97
2019-03-03T16:32:17.606Z,12.88
2019-03-03T16:34:50.729Z,12.75
2019-03-03T16:37:22.390Z,12.63
2019-03-03T16:39:55.377Z,12.52
2019-03-03T16:42:31.762Z,12.42
2019-03-03T16:45:05.703Z,12.30
2019-03-03T16:47:39.569Z,12.17
2019-03-03T16:50:15.333Z,12.07
2019-03-03T16:52:47.040Z,11.94
2019-03-03T16:55:20.639Z,11.81
2019-03-03T16:57:55.085Z,11.68
2019-03-03T17:00:27.482Z,11.56
2019-03-03T17:03:01.653Z,11.45
2019-03-03T17:05:34.700Z,11.33
2019-03-03T17:08:08.762Z,11.22
2019-03-03T17:10:41.010Z,11.14
2019-03-03T17:13:14.569Z,11.05
2019-03-03T17:15:48.934Z,10.96
2019-03-03T17:18:20.676Z,10.87
2019-03-03T17:20:52.080Z,10.79
2019-03-03T17:23:23.470Z,10.72
2019-03-03T17:25:56.746Z,10.66
2019-03-03T17:28:30.656Z,10.60
2019-03-03T17:31:02.810Z,10.51
2019-03-03T17:33:34.733Z,10.44
2019-03-03T17:36:07.758Z,10.36
2019-03-03T17:38:40.782Z,10.25
2019-03-03T17:41:13.206Z,10.19
2019-03-03T17:43:46.967Z,10.02
2019-03-03T17:46:18.746Z,10.11
2019-03-03T17:48:52.629Z,10.08
2019-03-03T17:51:28.331Z,10.02
2019-03-03T17:53:59.851Z,9.97
2019-03-03T17:56:31.102Z,9.90
2019-03-03T17:59:03.892Z,9.85
2019-03-03T18:01:37.893Z,9.74
2019-03-03T18:04:11.882Z,9.74
2019-03-03T18:06:43.781Z,9.70
2019-03-03T18:09:17.745Z,9.66
2019-03-03T18:11:49.812Z,9.61
2019-03-03T18:14:23.042Z,9.56
2019-03-03T18:16:54.438Z,9.50
2019-03-03T18:19:26.899Z,9.44
2019-03-03T18:21:58.931Z,9.40
2019-03-03T18:24:31.100Z,9.39
2019-03-03T18:27:06.819Z,9.39
2019-03-03T18:29:38.559Z,9.43
2019-03-03T18:32:11.994Z,9.46
2019-03-03T18:34:43.886Z,9.50
2019-03-03T18:37:16.047Z,9.52
2019-03-03T18:39:50.434Z,9.51
2019-03-03T18:42:23.264Z,9.51
2019-03-03T18:44:57.852Z,9.48
2019-03-03T18:47:29.955Z,9.45
2019-03-03T18:50:04.428Z,9.46
2019-03-03T18:52:37.989Z,9.47
2019-03-03T18:55:12.216Z,9.44
2019-03-03T18:57:43.991Z,8.80
2019-03-03T19:00:22.664Z,9.41
2019-03-03T19:02:54.204Z,9.41
2019-03-03T19:05:26.103Z,9.39
2019-03-03T19:08:01.021Z,9.37
2019-03-03T19:10:33.404Z,9.37
2019-03-03T19:13:09.070Z,9.35
2019-03-03T19:15:40.943Z,9.33
2019-03-03T19:18:14.136Z,9.31
2019-03-03T19:20:48.021Z,9.28
2019-03-03T19:23:21.275Z,9.28
2019-03-03T19:25:54.244Z,9.27
2019-03-03T19:28:28.155Z,9.28
2019-03-03T19:31:01.289Z,9.24
2019-03-03T19:33:40.141Z,9.22
2019-03-03T19:36:11.458Z,9.19
2019-03-03T19:38:44.448Z,9.15
2019-03-03T19:41:16.353Z,9.12
2019-03-03T19:43:50.184Z,9.09
2019-03-03T19:46:24.071Z,9.05
2019-03-03T19:48:56.348Z,9.01
2019-03-03T19:51:27.797Z,8.94
2019-03-03T19:54:01.351Z,8.87
2019-03-03T19:56:34.447Z,8.78
2019-03-03T19:59:06.556Z,8.72
2019-03-03T20:01:38.640Z,8.67
2019-03-03T20:04:12.317Z,8.64
2019-03-03T20:06:44.452Z,8.62
2019-03-03T20:09:17.861Z,8.60
2019-03-03T20:11:50.375Z,8.57
2019-03-03T20:14:23.455Z,8.55
2019-03-03T20:16:57.442Z,8.51
2019-03-03T20:19:30.554Z,8.47
2019-03-03T20:22:02.425Z,8.45
2019-03-03T20:24:35.310Z,8.42
2019-03-03T20:27:08.519Z,8.39
2019-03-03T20:29:41.237Z,8.39
2019-03-03T20:32:15.510Z,8.41
2019-03-03T20:34:47.465Z,8.40
2019-03-03T20:37:19.509Z,8.40
2019-03-03T20:39:53.800Z,8.39
2019-03-03T20:42:27.963Z,8.36
2019-03-03T20:45:00.631Z,8.35
2019-03-03T20:47:34.586Z,8.32
2019-03-03T20:50:10.511Z,8.29
2019-03-03T20:52:41.884Z,8.22
2019-03-03T20:55:16.573Z,8.22
2019-03-03T20:57:48.608Z,8.20
2019-03-03T21:00:24.492Z,8.20
2019-03-03T21:02:58.934Z,8.19
2019-03-03T21:05:32.587Z,8.20
2019-03-03T21:08:05.781Z,8.20
2019-03-03T21:10:39.783Z,8.17
2019-03-03T21:13:12.238Z,8.18
2019-03-03T21:15:44.673Z,8.17
2019-03-03T21:18:17.726Z,8.15
2019-03-03T21:20:51.755Z,8.12
2019-03-03T21:23:24.780Z,8.08
2019-03-03T21:25:56.867Z,8.07
2019-03-03T21:28:28.780Z,8.04
2019-03-03T21:31:00.790Z,7.94
2019-03-03T21:33:32.750Z,7.94
2019-03-03T21:36:07.009Z,7.91
2019-03-03T21:38:40.824Z,7.85
2019-03-03T21:41:14.585Z,7.80
2019-03-03T21:43:47.723Z,7.05
2019-03-03T21:46:20.701Z,7.70
2019-03-03T21:48:53.815Z,7.66
2019-03-03T21:51:26.063Z,7.63
2019-03-03T21:53:58.739Z,7.57
2019-03-03T21:56:32.795Z,7.42
2019-03-03T21:59:05.757Z,7.37
2019-03-03T22:01:41.431Z,7.34
2019-03-03T22:04:14.504Z,7.29
2019-03-03T22:06:46.849Z,7.32
2019-03-03T22:09:20.905Z,7.39
2019-03-03T22:11:54.280Z,7.38
2019-03-03T22:14:27.984Z,7.38
2019-03-03T22:17:00.856Z,7.41
2019-03-03T22:19:32.237Z,7.43
2019-03-03T22:22:06.021Z,7.47
2019-03-03T22:24:39.053Z,7.48
2019-03-03T22:27:11.270Z,7.47
2019-03-03T22:29:45.088Z,7.45
2019-03-03T22:32:17.132Z,7.43
2019-03-03T22:34:51.011Z,7.38
2019-03-03T22:37:24.087Z,7.33
2019-03-03T22:39:55.347Z,7.30
2019-03-03T22:42:28.103Z,7.27
2019-03-03T22:44:59.379Z,7.25
2019-03-03T22:47:33.106Z,7.20
2019-03-03T22:50:07.516Z,7.17
2019-03-03T22:52:39.193Z,7.18
2019-03-03T22:55:10.988Z,7.16
2019-03-03T22:57:46.776Z,7.17
2019-03-03T23:00:44.021Z,7.20
2019-03-03T23:03:24.836Z,7.25
2019-03-03T23:06:28.961Z,7.29
2019-03-03T23:09:52.544Z,7.33
2019-03-03T23:12:52.334Z,7.35
2019-03-03T23:16:00.529Z,7.34
2019-03-03T23:18:55.150Z,7.30
2019-03-03T23:21:57.724Z,7.26
2019-03-03T23:25:10.018Z,7.26
2019-03-03T23:27:41.355Z,7.25
2019-03-03T23:30:15.386Z,7.22
2019-03-03T23:32:48.387Z,7.22
2019-03-03T23:35:22.950Z,7.18
2019-03-03T23:37:54.225Z,7.12
2019-03-03T23:40:27.338Z,7.04
2019-03-03T23:42:59.287Z,6.97
2019-03-03T23:45:32.294Z,6.98
2019-03-03T23:48:05.769Z,6.97
2019-03-03T23:50:39.868Z,6.97
2019-03-03T23:53:11.234Z,6.97
2019-03-03T23:55:44.436Z,6.93
2019-03-03T23:58:17.425Z,6.85
